Time;durP1;ratioP1;P1;durP2;ratioP2;P2;SDS_P1;SDS_P2;PMS_P1;PMS_P2;Temp;Humidity;BMP_temperature;BMP_pressure;BME280_temperature;BME280_humidity;BME280_pressure;Samples;Min_cycle;Max_cycle;Signal;HPM_P1;HPM_P2
2022/09/18 00:00:39;;;;;;;1.43;1.17;;;9.90;99.90;;;;;;5013030;28;20236;-86
2022/09/18 00:03:05;;;;;;;2.83;1.57;;;9.90;99.90;;;;;;4999012;28;20183;-86
2022/09/18 00:05:34;;;;;;;2.80;1.33;;;10.00;99.90;;;;;;4999046;28;20209;-86
2022/09/18 00:08:00;;;;;;;3.23;1.57;;;10.00;99.90;;;;;;4995399;28;20189;-85
2022/09/18 00:10:26;;;;;;;3.10;1.63;;;10.00;99.90;;;;;;5010092;28;20182;-85
2022/09/18 00:12:51;;;;;;;4.17;1.50;;;10.00;99.90;;;;;;4998494;28;20222;-85
2022/09/18 00:15:17;;;;;;;5.53;1.70;;;10.00;99.90;;;;;;5014570;28;20195;-85
2022/09/18 00:17:44;;;;;;;4.67;2.00;;;10.00;99.90;;;;;;5005572;28;20277;-86
2022/09/18 00:20:09;;;;;;;4.20;2.00;;;10.00;99.90;;;;;;5006174;28;20285;-85
2022/09/18 00:22:35;;;;;;;2.37;1.20;;;10.00;99.90;;;;;;4998655;28;20182;-86
2022/09/18 00:25:01;;;;;;;1.80;1.00;;;10.00;99.90;;;;;;4996844;28;20232;-84
2022/09/18 00:27:27;;;;;;;3.00;1.20;;;10.00;99.90;;;;;;4997685;28;20198;-85
2022/09/18 00:29:53;;;;;;;4.40;1.20;;;9.90;99.90;;;;;;4991027;28;20180;-85
2022/09/18 00:32:19;;;;;;;2.57;1.20;;;10.00;99.90;;;;;;4995185;28;20565;-86
2022/09/18 00:34:45;;;;;;;2.07;1.00;;;9.90;99.90;;;;;;4983957;28;20218;-85
2022/09/18 00:37:11;;;;;;;3.10;1.10;;;9.90;99.90;;;;;;4997887;28;20213;-85
2022/09/18 00:39:37;;;;;;;3.53;1.50;;;9.90;99.90;;;;;;4994472;28;20176;-86
2022/09/18 00:42:03;;;;;;;5.13;1.10;;;10.00;99.90;;;;;;4995102;28;20194;-85
2022/09/18 00:44:32;;;;;;;3.80;1.27;;;10.00;99.90;;;;;;4996386;28;20209;-85
2022/09/18 00:47:06;;;;;;;2.73;1.10;;;10.00;99.90;;;;;;4998057;28;20209;-85
2022/09/18 00:49:32;;;;;;;2.47;0.90;;;9.90;99.90;;;;;;5013085;28;20209;-85
2022/09/18 00:52:00;;;;;;;2.63;1.27;;;9.90;99.90;;;;;;4994537;28;20249;-86
2022/09/18 00:54:33;;;;;;;5.47;1.27;;;9.90;99.90;;;;;;5012130;28;20213;-86
2022/09/18 00:57:04;;;;;;;3.37;1.10;;;9.90;99.90;;;;;;4997931;28;20269;-86
2022/09/18 00:59:32;;;;;;;3.43;1.33;;;9.90;99.90;;;;;;4996804;28;20578;-86
2022/09/18 01:01:59;;;;;;;6.20;1.30;;;9.90;99.90;;;;;;4997485;28;20282;-86
2022/09/18 01:04:26;;;;;;;5.40;1.13;;;10.00;99.90;;;;;;4981359;28;20305;-85
2022/09/18 01:06:56;;;;;;;3.27;1.20;;;10.00;99.90;;;;;;4994630;28;20191;-86
2022/09/18 01:09:47;;;;;;;2.93;1.10;;;10.00;99.90;;;;;;5010203;28;20197;-85
2022/09/18 01:12:33;;;;;;;3.57;1.17;;;10.00;99.90;;;;;;4997875;28;20270;-85
2022/09/18 01:15:46;;;;;;;1.40;1.07;;;10.00;99.90;;;;;;5011599;28;20221;-85
2022/09/18 01:18:30;;;;;;;5.03;1.00;;;10.00;99.90;;;;;;4976212;28;20195;-86
2022/09/18 01:21:12;;;;;;;3.17;0.97;;;9.90;99.90;;;;;;4999965;28;20210;-85
2022/09/18 01:23:56;;;;;;;2.73;1.20;;;9.90;99.90;;;;;;4997752;28;20585;-86
2022/09/18 01:26:59;;;;;;;3.17;1.20;;;9.90;99.90;;;;;;4989574;28;20210;-85
2022/09/18 01:29:31;;;;;;;2.93;1.03;;;9.90;99.90;;;;;;4976531;28;20187;-86
2022/09/18 01:32:31;;;;;;;3.07;1.10;;;9.90;99.90;;;;;;5007047;28;20201;-85
2022/09/18 01:35:07;;;;;;;3.23;1.10;;;10.00;99.90;;;;;;4991171;28;20191;-85
2022/09/18 01:37:35;;;;;;;2.23;1.23;;;10.00;99.90;;;;;;4994879;28;20203;-86
2022/09/18 01:40:26;;;;;;;2.03;1.10;;;10.00;99.90;;;;;;5001258;28;20198;-85
2022/09/18 01:42:56;;;;;;;2.93;1.27;;;10.00;99.90;;;;;;5013762;28;20186;-85
2022/09/18 01:45:39;;;;;;;2.30;1.30;;;10.10;99.90;;;;;;4996560;28;20309;-86
2022/09/18 01:48:07;;;;;;;2.50;1.30;;;10.10;99.90;;;;;;4996819;28;20200;-86
2022/09/18 01:50:48;;;;;;;2.27;0.90;;;10.10;99.90;;;;;;4986514;28;20755;-85
2022/09/18 01:53:21;;;;;;;2.83;1.40;;;10.10;99.90;;;;;;4994059;28;20222;-86
2022/09/18 01:56:00;;;;;;;3.13;1.10;;;10.00;99.90;;;;;;5004884;28;20285;-85
2022/09/18 01:58:27;;;;;;;1.63;1.00;;;10.00;99.90;;;;;;4996501;28;20174;-85
2022/09/18 02:00:59;;;;;;;1.10;0.73;;;10.00;99.90;;;;;;4985031;28;20182;-85
2022/09/18 02:03:38;;;;;;;1.87;1.17;;;10.00;99.90;;;;;;5004185;28;20178;-85
2022/09/18 02:06:09;;;;;;;4.10;1.07;;;10.00;99.90;;;;;;4996740;28;20212;-86
2022/09/18 02:08:43;;;;;;;3.93;1.10;;;10.00;99.90;;;;;;4984643;28;20183;-86
2022/09/18 02:11:14;;;;;;;3.20;1.00;;;10.00;99.90;;;;;;4993403;28;20187;-85
2022/09/18 02:14:06;;;;;;;3.00;1.20;;;10.00;99.90;;;;;;5004706;28;20251;-86
2022/09/18 02:16:58;;;;;;;1.13;0.80;;;10.00;99.90;;;;;;5015363;28;20179;-86
2022/09/18 02:19:33;;;;;;;3.87;1.23;;;10.00;99.90;;;;;;4979706;28;20183;-86
2022/09/18 02:22:07;;;;;;;2.63;1.10;;;10.10;99.90;;;;;;4992668;28;20198;-86
2022/09/18 02:24:36;;;;;;;4.13;1.10;;;10.00;99.90;;;;;;4993355;28;20230;-86
2022/09/18 02:27:06;;;;;;;2.87;1.00;;;10.00;99.90;;;;;;4993249;28;20274;-85
2022/09/18 02:29:33;;;;;;;2.67;0.93;;;10.00;99.90;;;;;;4994030;28;20187;-85
2022/09/18 02:31:59;;;;;;;4.20;1.20;;;10.00;99.90;;;;;;4992740;28;20231;-85
2022/09/18 02:34:27;;;;;;;3.77;1.10;;;10.00;99.90;;;;;;5007584;28;20199;-85
2022/09/18 02:37:06;;;;;;;3.77;1.10;;;10.00;99.90;;;;;;4985099;28;20230;-86
2022/09/18 02:39:35;;;;;;;4.97;1.23;;;10.00;99.90;;;;;;4992729;28;20199;-85
2022/09/18 02:42:12;;;;;;;3.40;1.20;;;10.00;99.90;;;;;;5004295;28;20741;-85
2022/09/18 02:44:47;;;;;;;3.57;1.00;;;10.00;99.90;;;;;;4995996;28;20198;-85
2022/09/18 02:47:25;;;;;;;1.50;0.97;;;10.00;99.90;;;;;;5011711;28;20194;-86
2022/09/18 02:49:56;;;;;;;2.23;0.90;;;10.00;99.90;;;;;;5012634;28;20182;-85
2022/09/18 02:52:32;;;;;;;2.87;1.10;;;10.00;99.90;;;;;;4982933;28;20215;-85
2022/09/18 02:55:14;;;;;;;4.13;1.40;;;10.00;99.90;;;;;;4992657;28;20273;-85
2022/09/18 02:57:47;;;;;;;3.03;1.13;;;10.00;99.90;;;;;;5004377;28;20175;-85
2022/09/18 03:00:17;;;;;;;3.87;1.20;;;10.00;99.90;;;;;;4992738;28;20179;-85
2022/09/18 03:02:46;;;;;;;4.17;1.00;;;10.00;99.90;;;;;;4992925;28;20183;-85
2022/09/18 03:05:15;;;;;;;4.93;1.40;;;10.00;99.90;;;;;;4992549;28;20207;-85
2022/09/18 03:07:49;;;;;;;2.83;1.10;;;10.00;99.90;;;;;;4993305;28;20183;-86
2022/09/18 03:10:16;;;;;;;3.20;1.27;;;10.00;99.90;;;;;;4994969;28;20178;-85
2022/09/18 03:12:42;;;;;;;4.53;1.60;;;10.00;99.90;;;;;;5009784;28;20241;-85
2022/09/18 03:15:09;;;;;;;4.63;1.30;;;10.00;99.90;;;;;;4999758;28;20218;-85
2022/09/18 03:17:35;;;;;;;5.73;1.37;;;10.00;99.90;;;;;;4994792;28;20182;-85
2022/09/18 03:20:03;;;;;;;2.63;1.10;;;10.00;99.90;;;;;;4999531;28;20185;-85
2022/09/18 03:22:30;;;;;;;5.50;1.20;;;10.00;99.90;;;;;;4998370;28;20183;-85
2022/09/18 03:24:56;;;;;;;3.83;1.23;;;10.00;99.90;;;;;;4999332;28;20221;-85
2022/09/18 03:27:21;;;;;;;6.17;1.13;;;10.00;99.90;;;;;;5007584;28;20269;-85
2022/09/18 03:29:48;;;;;;;2.47;1.20;;;10.00;99.90;;;;;;4995717;28;20187;-85
2022/09/18 03:32:16;;;;;;;4.53;1.40;;;10.00;99.90;;;;;;5002697;28;20210;-85
2022/09/18 03:34:48;;;;;;;5.73;1.50;;;10.00;99.90;;;;;;4999702;28;20201;-85
2022/09/18 03:37:15;;;;;;;7.67;1.10;;;10.00;99.90;;;;;;4992606;28;20183;-85
2022/09/18 03:39:41;;;;;;;3.57;1.47;;;10.00;99.90;;;;;;4980661;28;20183;-85
2022/09/18 03:42:10;;;;;;;7.83;1.60;;;10.00;99.90;;;;;;4997861;28;20183;-85
2022/09/18 03:44:36;;;;;;;3.43;1.20;;;9.90;99.90;;;;;;5015562;28;20268;-85
2022/09/18 03:47:08;;;;;;;4.10;1.50;;;10.00;99.90;;;;;;5000289;28;20193;-85
2022/09/18 03:49:35;;;;;;;4.33;1.23;;;10.00;99.90;;;;;;4999986;28;20178;-85
2022/09/18 03:52:02;;;;;;;3.73;1.63;;;10.00;99.90;;;;;;4998077;28;20260;-85
2022/09/18 03:54:33;;;;;;;3.77;1.50;;;10.00;99.90;;;;;;4980762;28;20200;-85
2022/09/18 03:57:12;;;;;;;3.43;1.70;;;9.90;99.90;;;;;;4998505;28;20179;-85
2022/09/18 03:59:58;;;;;;;4.03;1.73;;;9.90;99.90;;;;;;5002077;28;20194;-85
2022/09/18 04:02:42;;;;;;;2.33;1.57;;;9.90;99.90;;;;;;5033610;28;20272;-85
2022/09/18 04:05:40;;;;;;;3.57;1.23;;;9.90;99.90;;;;;;4999770;28;20217;-85
2022/09/18 04:08:25;;;;;;;4.37;1.70;;;9.80;99.90;;;;;;5016938;28;20201;-85
2022/09/18 04:11:12;;;;;;;1.73;1.33;;;9.80;99.90;;;;;;5016013;28;20187;-85
2022/09/18 04:13:38;;;;;;;2.20;1.50;;;9.80;99.90;;;;;;4986566;28;20793;-85
2022/09/18 04:16:07;;;;;;;3.20;1.47;;;9.80;99.90;;;;;;4996939;28;20282;-85
2022/09/18 04:18:33;;;;;;;1.53;1.30;;;9.80;99.90;;;;;;5024155;28;20240;-85
2022/09/18 04:21:01;;;;;;;2.73;1.40;;;9.80;99.90;;;;;;5012870;28;20186;-85
2022/09/18 04:23:27;;;;;;;4.57;1.43;;;9.80;99.90;;;;;;4999673;28;20285;-85
2022/09/18 04:25:56;;;;;;;3.13;1.33;;;9.80;99.90;;;;;;5012018;28;20199;-85
2022/09/18 04:28:26;;;;;;;2.07;1.10;;;9.80;99.90;;;;;;4999770;28;20187;-85
2022/09/18 04:30:52;;;;;;;3.03;1.10;;;9.80;99.90;;;;;;4996749;28;20194;-85
2022/09/18 04:33:18;;;;;;;0.93;0.80;;;9.80;99.90;;;;;;4995828;28;20229;-85
2022/09/18 04:35:46;;;;;;;2.93;1.23;;;9.80;99.90;;;;;;4980570;28;20207;-85
2022/09/18 04:38:12;;;;;;;1.60;1.30;;;9.80;99.90;;;;;;4999129;28;20258;-85
2022/09/18 04:40:39;;;;;;;2.20;1.10;;;9.80;99.90;;;;;;5014733;28;20174;-85
2022/09/18 04:43:05;;;;;;;1.90;1.00;;;9.80;99.90;;;;;;4997240;28;20187;-85
2022/09/18 04:45:31;;;;;;;1.30;1.20;;;9.90;99.90;;;;;;4995838;28;20215;-85
2022/09/18 04:47:57;;;;;;;2.27;1.47;;;9.90;99.90;;;;;;5013667;28;20277;-85
2022/09/18 04:50:25;;;;;;;5.00;1.53;;;9.90;99.90;;;;;;4998950;28;20190;-85
2022/09/18 04:53:14;;;;;;;2.50;1.13;;;9.90;99.90;;;;;;5011635;28;20264;-85
2022/09/18 04:55:44;;;;;;;1.13;1.00;;;9.90;99.90;;;;;;4999437;28;20211;-85
2022/09/18 04:58:12;;;;;;;2.30;1.20;;;9.90;99.90;;;;;;4982983;28;20179;-85
2022/09/18 05:00:39;;;;;;;4.17;1.10;;;9.90;99.90;;;;;;4995666;28;20187;-85
2022/09/18 05:03:06;;;;;;;3.00;1.20;;;9.90;99.90;;;;;;5012066;28;20217;-85
2022/09/18 05:05:35;;;;;;;2.83;1.43;;;9.80;99.90;;;;;;5015276;28;20203;-85
2022/09/18 05:08:02;;;;;;;1.53;1.20;;;9.80;99.90;;;;;;4986820;28;20206;-85
2022/09/18 05:10:29;;;;;;;2.77;1.40;;;9.80;99.90;;;;;;5003040;28;20171;-85
2022/09/18 05:12:55;;;;;;;1.70;1.20;;;9.80;99.90;;;;;;5014566;28;20289;-85
2022/09/18 05:15:21;;;;;;;2.60;1.30;;;9.80;99.90;;;;;;5013053;28;20282;-85
2022/09/18 05:18:00;;;;;;;2.83;1.17;;;9.80;99.90;;;;;;4992649;28;20550;-85
2022/09/18 05:20:28;;;;;;;2.47;1.47;;;9.80;99.90;;;;;;4978748;28;20195;-85
2022/09/18 05:22:59;;;;;;;2.43;1.47;;;9.80;99.90;;;;;;5002079;28;20190;-85
2022/09/18 05:25:27;;;;;;;2.47;1.43;;;9.70;99.90;;;;;;4998348;28;20253;-85
2022/09/18 05:28:01;;;;;;;3.53;1.30;;;9.70;99.90;;;;;;4979691;28;20266;-85
2022/09/18 05:30:37;;;;;;;2.53;1.17;;;9.70;99.90;;;;;;4996001;28;20183;-85
2022/09/18 05:33:08;;;;;;;2.60;1.30;;;9.70;99.90;;;;;;4995745;28;20211;-85
2022/09/18 05:35:38;;;;;;;3.93;1.43;;;9.70;99.90;;;;;;4979089;28;20213;-85
2022/09/18 05:38:05;;;;;;;5.03;1.40;;;9.70;99.90;;;;;;5012498;28;20179;-85
2022/09/18 05:40:36;;;;;;;3.87;1.20;;;9.70;99.90;;;;;;4996119;28;20189;-85
2022/09/18 05:43:03;;;;;;;5.20;1.50;;;9.70;99.90;;;;;;4997829;28;20186;-85
2022/09/18 05:45:32;;;;;;;2.03;1.40;;;9.70;99.90;;;;;;5012181;28;20206;-85
2022/09/18 05:48:02;;;;;;;3.33;1.53;;;9.70;99.90;;;;;;4991075;28;20282;-85
2022/09/18 05:50:30;;;;;;;3.13;1.20;;;9.80;99.90;;;;;;4989320;28;20183;-85
2022/09/18 05:53:02;;;;;;;4.37;1.30;;;9.80;99.90;;;;;;4979393;28;20226;-85
2022/09/18 05:55:35;;;;;;;1.67;1.30;;;9.80;99.90;;;;;;4983801;28;20203;-85
2022/09/18 05:58:02;;;;;;;3.27;1.27;;;9.80;99.90;;;;;;4977948;28;20214;-86
2022/09/18 06:00:30;;;;;;;4.33;1.70;;;9.80;99.90;;;;;;5005941;28;20179;-86
2022/09/18 06:03:10;;;;;;;4.40;1.60;;;9.80;99.90;;;;;;4995486;28;20186;-86
2022/09/18 06:05:37;;;;;;;6.97;1.77;;;9.80;99.90;;;;;;5001330;28;20230;-86
2022/09/18 06:08:06;;;;;;;6.50;1.90;;;9.80;99.90;;;;;;4996860;28;20183;-85
2022/09/18 06:10:36;;;;;;;2.80;1.70;;;9.90;99.90;;;;;;4995667;28;20185;-85
2022/09/18 06:13:06;;;;;;;4.93;1.70;;;9.90;99.90;;;;;;4997801;28;20301;-85
2022/09/18 06:15:33;;;;;;;4.50;1.53;;;9.90;99.90;;;;;;4996473;28;20202;-85
2022/09/18 06:17:59;;;;;;;1.63;1.53;;;9.90;99.90;;;;;;5023834;28;20190;-86
2022/09/18 06:20:26;;;;;;;1.87;1.40;;;9.90;99.90;;;;;;5005447;28;20203;-85
2022/09/18 06:22:52;;;;;;;3.77;1.93;;;9.90;99.90;;;;;;4995021;28;20186;-86
2022/09/18 06:25:30;;;;;;;4.03;1.70;;;9.90;99.90;;;;;;5003765;28;20704;-85
2022/09/18 06:27:58;;;;;;;2.03;1.33;;;9.90;99.90;;;;;;5024136;28;20178;-85
2022/09/18 06:30:30;;;;;;;3.10;1.40;;;10.00;99.90;;;;;;5021246;28;20265;-85
2022/09/18 06:33:05;;;;;;;3.17;1.60;;;10.00;99.90;;;;;;5020403;28;20225;-86
2022/09/18 06:35:35;;;;;;;12.23;5.40;;;10.00;99.90;;;;;;5008048;28;20203;-86
2022/09/18 06:38:03;;;;;;;2.70;1.60;;;10.10;99.90;;;;;;4980106;28;20176;-86
2022/09/18 06:40:51;;;;;;;3.83;1.60;;;10.10;99.90;;;;;;5002493;28;20169;-86
2022/09/18 06:43:40;;;;;;;2.77;1.57;;;10.20;99.90;;;;;;5034655;28;20173;-85
2022/09/18 06:46:29;;;;;;;2.60;1.00;;;10.30;99.90;;;;;;5000382;28;20256;-85
2022/09/18 06:48:56;;;;;;;4.50;1.40;;;10.30;99.90;;;;;;5007369;28;20170;-85
2022/09/18 06:51:22;;;;;;;2.93;1.30;;;10.30;99.90;;;;;;5001969;28;20282;-85
2022/09/18 06:54:07;;;;;;;2.00;1.30;;;10.30;99.90;;;;;;5043010;28;20192;-85
2022/09/18 06:56:33;;;;;;;2.97;1.10;;;10.40;99.90;;;;;;4999479;28;20186;-85
2022/09/18 06:58:59;;;;;;;2.33;1.27;;;10.40;99.90;;;;;;4987163;28;20194;-86
2022/09/18 07:01:24;;;;;;;4.37;1.50;;;10.50;99.90;;;;;;4995744;28;20182;-85
2022/09/18 07:04:03;;;;;;;2.00;1.30;;;10.50;99.90;;;;;;4995800;28;20282;-85
2022/09/18 07:06:38;;;;;;;4.23;1.37;;;10.50;99.90;;;;;;4980604;28;20175;-85
2022/09/18 07:09:04;;;;;;;1.83;1.40;;;10.50;99.90;;;;;;4995686;28;20229;-85
2022/09/18 07:11:54;;;;;;;5.47;1.33;;;10.60;99.90;;;;;;5033699;28;20228;-85
2022/09/18 07:14:27;;;;;;;3.00;1.20;;;10.60;99.90;;;;;;5013398;28;20262;-86
2022/09/18 07:17:00;;;;;;;1.83;1.40;;;10.60;99.90;;;;;;5006400;28;20180;-85
2022/09/18 07:19:26;;;;;;;3.63;1.30;;;10.70;99.90;;;;;;5002576;28;20251;-85
2022/09/18 07:21:52;;;;;;;3.40;1.23;;;10.70;99.90;;;;;;4995225;28;20207;-85
2022/09/18 07:24:18;;;;;;;4.00;1.33;;;10.80;99.90;;;;;;5004849;28;20206;-85
2022/09/18 07:26:44;;;;;;;4.53;1.20;;;10.80;99.90;;;;;;4983138;28;20175;-85
2022/09/18 07:29:10;;;;;;;3.37;1.10;;;10.80;99.90;;;;;;5009985;28;20175;-86
2022/09/18 07:31:36;;;;;;;1.70;1.10;;;10.80;99.90;;;;;;5013273;28;20176;-86
2022/09/18 07:34:08;;;;;;;2.33;1.07;;;10.90;99.90;;;;;;5007514;28;20193;-85
2022/09/18 07:36:37;;;;;;;2.20;0.90;;;10.90;99.90;;;;;;5004959;28;20168;-85
2022/09/18 07:39:04;;;;;;;4.23;1.20;;;10.80;99.90;;;;;;5002613;28;20170;-85
2022/09/18 07:41:39;;;;;;;2.57;1.13;;;10.80;99.90;;;;;;5012566;28;20265;-86
2022/09/18 07:44:09;;;;;;;3.97;0.93;;;10.90;99.90;;;;;;5022973;28;20170;-86
2022/09/18 07:46:35;;;;;;;2.20;1.07;;;10.90;99.90;;;;;;5010586;28;20211;-85
2022/09/18 07:49:03;;;;;;;2.20;0.97;;;10.90;99.90;;;;;;5007495;28;20200;-85
2022/09/18 07:51:30;;;;;;;1.07;0.93;;;10.90;99.90;;;;;;5014856;28;20174;-85
2022/09/18 07:54:01;;;;;;;1.87;0.93;;;10.90;99.90;;;;;;5003713;28;20190;-86
2022/09/18 07:56:56;;;;;;;0.90;0.90;;;10.90;99.90;;;;;;5030122;28;20181;-86
2022/09/18 07:59:26;;;;;;;3.30;1.20;;;10.80;99.90;;;;;;5024100;28;20175;-85
2022/09/18 08:01:58;;;;;;;3.03;1.03;;;10.80;99.90;;;;;;5011699;28;20171;-85
2022/09/18 08:04:26;;;;;;;2.20;0.90;;;10.80;99.90;;;;;;5013802;28;20198;-85
2022/09/18 08:07:16;;;;;;;2.23;1.20;;;10.70;99.90;;;;;;5014057;28;20171;-85
2022/09/18 08:10:09;;;;;;;1.87;1.10;;;10.70;99.90;;;;;;4998635;28;20168;-85
2022/09/18 08:13:04;;;;;;;2.33;1.20;;;10.70;99.90;;;;;;4998499;28;20233;-86
2022/09/18 08:16:02;;;;;;;1.80;1.10;;;10.70;99.90;;;;;;5007281;28;20195;-85
2022/09/18 08:18:49;;;;;;;1.33;0.80;;;10.70;99.90;;;;;;5007397;28;20180;-85
2022/09/18 08:21:36;;;;;;;1.37;1.00;;;10.80;99.90;;;;;;4990269;28;20266;-85
2022/09/18 08:24:07;;;;;;;0.87;0.73;;;10.90;99.90;;;;;;5006895;28;20170;-85
2022/09/18 08:26:47;;;;;;;1.87;1.10;;;10.90;99.90;;;;;;5018482;28;20233;-88
2022/09/18 08:29:17;;;;;;;2.80;0.90;;;11.00;99.90;;;;;;5009301;28;20193;-86
2022/09/18 08:31:54;;;;;;;1.13;0.80;;;11.10;99.90;;;;;;4989170;28;20175;-86
2022/09/18 08:34:26;;;;;;;1.57;0.90;;;11.20;99.90;;;;;;5016534;28;20229;-86
2022/09/18 08:36:54;;;;;;;1.23;0.70;;;11.20;99.90;;;;;;5002663;28;20181;-86
2022/09/18 08:39:24;;;;;;;1.70;0.80;;;11.30;99.90;;;;;;5004104;28;20168;-86
2022/09/18 08:42:18;;;;;;;1.57;0.70;;;11.30;99.90;;;;;;5014603;28;20187;-86
2022/09/18 08:45:02;;;;;;;0.63;0.63;;;11.40;99.90;;;;;;5010202;28;20199;-86
2022/09/18 08:47:34;;;;;;;0.70;0.70;;;11.40;99.90;;;;;;5003549;28;20190;-86
2022/09/18 08:50:18;;;;;;;1.80;0.90;;;11.40;99.90;;;;;;4991925;28;20177;-86
2022/09/18 08:52:49;;;;;;;1.43;0.73;;;11.50;99.90;;;;;;4997770;28;20239;-86
2022/09/18 08:55:40;;;;;;;1.30;0.80;;;11.60;99.90;;;;;;5001530;28;20234;-86
2022/09/18 08:59:03;;;;;;;2.27;1.00;;;11.60;99.90;;;;;;5028183;28;20210;-86
2022/09/18 09:02:02;;;;;;;8.30;4.13;;;11.70;99.90;;;;;;5003600;28;20176;-86
2022/09/18 09:04:31;;;;;;;2.63;1.20;;;11.70;99.90;;;;;;5011739;28;20206;-87
2022/09/18 09:07:30;;;;;;;1.80;1.03;;;11.70;99.90;;;;;;5005833;28;20278;-87
2022/09/18 09:10:11;;;;;;;2.93;1.40;;;11.70;99.90;;;;;;4931415;28;20277;-86
2022/09/18 09:12:56;;;;;;;3.37;1.30;;;11.70;99.90;;;;;;4996909;28;20203;-87
2022/09/18 09:15:30;;;;;;;3.10;1.40;;;11.60;99.90;;;;;;5002888;28;20755;-87
2022/09/18 09:18:17;;;;;;;2.10;1.50;;;11.60;99.90;;;;;;5016325;28;20169;-87
2022/09/18 09:20:54;;;;;;;2.93;1.40;;;11.60;99.90;;;;;;5015571;28;20170;-86
2022/09/18 09:23:50;;;;;;;3.73;2.30;;;11.50;99.90;;;;;;4995175;28;20190;-86
2022/09/18 09:26:44;;;;;;;2.17;1.40;;;11.50;99.90;;;;;;5010555;28;20210;-86
2022/09/18 09:29:46;;;;;;;4.67;1.30;;;11.50;99.90;;;;;;5014394;28;20185;-86
2022/09/18 09:32:44;;;;;;;5.63;1.17;;;11.60;99.90;;;;;;5007737;28;20211;-86
2022/09/18 09:35:37;;;;;;;3.23;1.03;;;11.70;99.90;;;;;;5032206;28;20278;-86
2022/09/18 09:38:47;;;;;;;1.87;1.20;;;11.80;99.90;;;;;;5015913;28;20181;-86
2022/09/18 09:41:32;;;;;;;4.23;1.63;;;11.90;99.90;;;;;;5014036;28;20308;-86
2022/09/18 09:44:27;;;;;;;3.17;1.20;;;12.10;99.90;;;;;;4995859;28;20241;-86
2022/09/18 09:47:05;;;;;;;4.23;1.33;;;12.20;99.90;;;;;;4985654;28;20232;-86
2022/09/18 09:50:05;;;;;;;2.30;1.03;;;12.40;99.90;;;;;;5001925;28;20263;-86
2022/09/18 09:52:40;;;;;;;2.77;1.20;;;12.50;99.90;;;;;;4998973;28;20223;-86
2022/09/18 09:55:11;;;;;;;3.63;1.10;;;12.60;99.90;;;;;;4994046;28;20280;-86
2022/09/18 09:57:49;;;;;;;3.03;1.00;;;12.70;99.90;;;;;;4999746;28;20279;-86
2022/09/18 10:00:18;;;;;;;1.70;0.90;;;12.80;99.90;;;;;;4989163;28;20229;-85
2022/09/18 10:03:21;;;;;;;6.47;1.10;;;12.80;99.90;;;;;;5009855;28;20276;-86
2022/09/18 10:06:42;;;;;;;2.43;1.10;;;12.80;99.90;;;;;;4997500;28;20232;-86
2022/09/18 10:09:36;;;;;;;3.13;1.20;;;12.70;99.90;;;;;;4964707;28;20182;-86
2022/09/18 10:12:34;;;;;;;4.30;1.20;;;12.60;99.90;;;;;;4999303;28;20187;-87
2022/09/18 10:15:19;;;;;;;4.93;1.07;;;12.60;99.90;;;;;;5015676;28;20197;-86
2022/09/18 10:17:53;;;;;;;7.67;1.53;;;12.70;99.90;;;;;;5012022;28;20187;-85
2022/09/18 10:20:26;;;;;;;4.73;1.33;;;12.70;99.90;;;;;;4994024;28;20243;-85
2022/09/18 10:22:57;;;;;;;3.13;1.00;;;12.60;99.90;;;;;;4994728;28;20559;-86
2022/09/18 10:25:46;;;;;;;3.07;0.90;;;12.50;99.90;;;;;;4991926;28;20291;-85
2022/09/18 10:28:16;;;;;;;2.83;1.20;;;12.50;99.90;;;;;;4992792;28;20237;-86
2022/09/18 10:31:03;;;;;;;3.50;0.93;;;12.50;99.90;;;;;;5000598;28;20179;-86
2022/09/18 10:33:44;;;;;;;2.70;0.87;;;12.60;99.90;;;;;;5018142;28;20214;-86
2022/09/18 10:36:36;;;;;;;4.30;1.30;;;12.60;99.90;;;;;;5001297;28;20197;-85
2022/09/18 10:39:32;;;;;;;2.90;1.20;;;12.70;99.90;;;;;;4986713;28;20200;-85
2022/09/18 10:42:05;;;;;;;3.03;1.33;;;12.70;99.90;;;;;;5016027;28;20253;-85
2022/09/18 10:44:39;;;;;;;2.63;1.10;;;12.70;99.90;;;;;;4999158;28;20239;-85
2022/09/18 10:47:17;;;;;;;6.13;1.47;;;12.70;99.90;;;;;;4999997;28;20176;-86
2022/09/18 10:49:51;;;;;;;2.07;1.00;;;12.70;99.90;;;;;;4999063;28;20178;-86
2022/09/18 10:52:30;;;;;;;2.10;1.23;;;12.70;99.90;;;;;;4999097;28;20204;-85
2022/09/18 10:55:09;;;;;;;3.00;1.33;;;12.70;99.90;;;;;;4994436;28;20233;-86
2022/09/18 10:57:42;;;;;;;4.40;1.30;;;12.70;99.90;;;;;;5004282;28;20262;-85
2022/09/18 11:00:13;;;;;;;3.40;1.33;;;12.70;99.90;;;;;;5012793;28;20234;-86
2022/09/18 11:02:49;;;;;;;4.67;1.47;;;13.00;99.90;;;;;;4997855;28;20240;-86
2022/09/18 11:05:28;;;;;;;5.03;1.27;;;13.30;99.90;;;;;;4988494;28;20205;-86
2022/09/18 11:07:58;;;;;;;2.97;1.50;;;13.30;99.90;;;;;;4990515;28;20181;-86
2022/09/18 11:10:36;;;;;;;3.10;1.40;;;13.40;99.90;;;;;;5021391;28;20251;-86
2022/09/18 11:13:29;;;;;;;3.40;1.20;;;13.40;99.90;;;;;;5012883;28;20264;-86
2022/09/18 11:15:58;;;;;;;3.63;1.27;;;13.60;99.90;;;;;;5005000;28;20190;-86
2022/09/18 11:18:28;;;;;;;2.50;1.00;;;13.60;99.90;;;;;;5003265;28;20182;-85
2022/09/18 11:20:59;;;;;;;1.93;0.97;;;13.70;99.90;;;;;;4978266;28;20187;-86
2022/09/18 11:23:35;;;;;;;3.47;1.10;;;13.60;99.90;;;;;;4995356;28;20163;-85
2022/09/18 11:26:26;;;;;;;5.83;1.23;;;13.60;99.90;;;;;;4980562;28;20230;-85
2022/09/18 11:29:02;;;;;;;3.47;1.47;;;13.60;99.90;;;;;;4995100;28;20193;-85
2022/09/18 11:31:59;;;;;;;2.97;1.10;;;13.70;99.90;;;;;;5001213;28;20178;-86
2022/09/18 11:34:38;;;;;;;2.63;1.20;;;13.60;99.90;;;;;;5010810;28;20228;-86
2022/09/18 11:37:28;;;;;;;4.00;1.27;;;13.50;99.90;;;;;;5022376;28;20186;-85
2022/09/18 11:40:08;;;;;;;2.87;1.50;;;13.40;99.90;;;;;;5002151;28;20170;-86
2022/09/18 11:42:44;;;;;;;5.93;1.60;;;13.30;99.90;;;;;;5003025;28;20213;-86
2022/09/18 11:45:14;;;;;;;6.30;2.10;;;13.30;99.90;;;;;;5002363;28;20220;-86
2022/09/18 11:47:49;;;;;;;4.43;1.50;;;13.40;99.90;;;;;;5022814;28;20192;-86
2022/09/18 11:50:23;;;;;;;3.03;1.50;;;13.40;99.90;;;;;;5022255;28;20184;-85
2022/09/18 11:52:53;;;;;;;4.13;1.67;;;13.50;99.90;;;;;;5022483;28;20236;-81
2022/09/18 11:55:26;;;;;;;4.67;1.50;;;13.50;99.90;;;;;;5022774;28;20209;-86
2022/09/18 11:57:58;;;;;;;5.07;1.73;;;13.60;99.90;;;;;;5037938;28;20176;-86
2022/09/18 12:00:39;;;;;;;3.90;1.30;;;13.50;99.90;;;;;;5021683;28;20177;-85
2022/09/18 12:03:23;;;;;;;3.40;1.50;;;13.60;99.90;;;;;;5022026;28;20173;-86
2022/09/18 12:06:15;;;;;;;3.40;1.00;;;13.70;99.90;;;;;;5021611;28;20200;-86
2022/09/18 12:09:03;;;;;;;4.00;1.30;;;13.70;99.90;;;;;;4964387;28;20186;-86
2022/09/18 12:11:36;;;;;;;5.20;3.23;;;13.80;99.90;;;;;;4991748;28;20218;-85
2022/09/18 12:14:17;;;;;;;3.07;1.63;;;13.70;99.90;;;;;;5009508;28;20198;-86
2022/09/18 12:16:57;;;;;;;2.27;1.57;;;13.70;99.90;;;;;;5008646;28;20226;-86
2022/09/18 12:19:41;;;;;;;2.40;1.80;;;13.60;99.90;;;;;;5027630;28;20197;-86
2022/09/18 12:22:23;;;;;;;3.07;1.43;;;13.60;99.90;;;;;;5012588;28;20721;-86
2022/09/18 12:24:59;;;;;;;3.13;1.73;;;13.70;99.90;;;;;;5010949;28;20210;-86
2022/09/18 12:28:02;;;;;;;2.50;1.30;;;13.60;99.90;;;;;;5014370;28;20206;-85
2022/09/18 12:30:51;;;;;;;5.07;1.97;;;13.60;99.90;;;;;;4998274;28;20210;-86
2022/09/18 12:33:42;;;;;;;3.70;1.57;;;13.50;99.90;;;;;;5020182;28;20190;-87
2022/09/18 12:36:17;;;;;;;3.33;1.20;;;13.50;99.90;;;;;;5020056;28;20201;-86
2022/09/18 12:38:56;;;;;;;3.03;1.30;;;13.50;99.90;;;;;;5020795;28;20173;-86
2022/09/18 12:41:41;;;;;;;4.37;1.30;;;13.40;99.90;;;;;;5020766;28;20178;-86
2022/09/18 12:44:46;;;;;;;4.63;1.63;;;13.50;99.90;;;;;;5036587;28;20224;-86
2022/09/18 12:47:28;;;;;;;3.20;1.10;;;13.50;99.90;;;;;;5025846;28;20205;-86
2022/09/18 12:49:56;;;;;;;4.30;1.37;;;13.50;99.90;;;;;;5000499;28;20257;-86
2022/09/18 12:52:37;;;;;;;2.20;1.17;;;13.50;99.90;;;;;;4998443;28;20203;-86
2022/09/18 12:55:21;;;;;;;1.90;1.20;;;13.50;99.90;;;;;;5000079;28;20746;-86
2022/09/18 12:58:03;;;;;;;1.77;1.07;;;13.60;99.90;;;;;;4998582;28;20213;-86
2022/09/18 13:00:30;;;;;;;4.07;1.10;;;13.70;99.90;;;;;;4998698;28;20185;-86
2022/09/18 13:03:11;;;;;;;2.70;0.80;;;13.70;99.90;;;;;;5007561;28;20179;-86
2022/09/18 13:05:42;;;;;;;2.77;1.20;;;13.80;99.90;;;;;;4989599;28;20198;-86
2022/09/18 13:08:41;;;;;;;3.37;0.97;;;13.80;99.90;;;;;;5011626;28;20189;-86
2022/09/18 13:11:29;;;;;;;2.73;0.80;;;13.90;99.90;;;;;;5014948;28;20659;-86
2022/09/18 13:14:24;;;;;;;1.67;0.83;;;13.90;99.90;;;;;;4998418;28;20260;-85
2022/09/18 13:17:05;;;;;;;2.13;1.70;;;14.00;99.90;;;;;;4998176;28;20209;-86
2022/09/18 13:19:39;;;;;;;2.97;1.50;;;14.20;99.90;;;;;;4993332;28;20181;-86
2022/09/18 13:22:28;;;;;;;2.10;1.20;;;14.20;99.90;;;;;;5014322;28;20170;-86
2022/09/18 13:24:55;;;;;;;2.53;0.90;;;14.40;99.90;;;;;;5014768;28;20202;-86
2022/09/18 13:27:23;;;;;;;4.53;1.10;;;14.40;99.90;;;;;;5014868;28;20178;-86
2022/09/18 13:29:57;;;;;;;3.97;1.30;;;14.40;99.90;;;;;;5001044;28;20181;-86
2022/09/18 13:32:44;;;;;;;2.40;1.13;;;14.50;99.90;;;;;;5000490;28;20675;-86
2022/09/18 13:35:13;;;;;;;1.13;0.80;;;14.60;99.90;;;;;;5012244;28;20275;-86